sensor_id;sensor_type;location;lat;lon;timestamp;P1;durP1;ratioP1;P2;durP2;ratioP2
7511;SDS011;9999;48.780;9.146;2023-04-25T00:01:05;0.80;;;0.80;;
7511;SDS011;9999;48.780;9.146;2023-04-25T00:03:34;0.80;;;0.80;;
7511;SDS011;9999;48.780;9.146;2023-04-25T00:06:01;0.80;;;0.80;;
7511;SDS011;9999;48.780;9.146;2023-04-25T00:08:28;1.10;;;0.90;;
7511;SDS011;9999;48.780;9.146;2023-04-25T00:10:57;1.17;;;1.07;;
7511;SDS011;9999;48.780;9.146;2023-04-25T00:13:24;1.63;;;1.27;;
7511;SDS011;9999;48.780;9.146;2023-04-25T00:15:51;1.33;;;1.23;;
7511;SDS011;9999;48.780;9.146;2023-04-25T00:18:18;1.10;;;1.00;;
7511;SDS011;9999;48.780;9.146;2023-04-25T00:20:45;0.73;;;0.73;;
7511;SDS011;9999;48.780;9.146;2023-04-25T00:23:12;0.83;;;0.83;;
7511;SDS011;9999;48.780;9.146;2023-04-25T00:25:42;0.83;;;0.73;;
7511;SDS011;9999;48.780;9.146;2023-04-25T00:28:10;0.70;;;0.70;;
7511;SDS011;9999;48.780;9.146;2023-04-25T00:30:37;1.40;;;1.30;;
7511;SDS011;9999;48.780;9.146;2023-04-25T00:33:05;1.30;;;1.13;;
7511;SDS011;9999;48.780;9.146;2023-04-25T00:35:31;1.63;;;1.27;;
7511;SDS011;9999;48.780;9.146;2023-04-25T00:37:59;0.90;;;0.90;;
7511;SDS011;9999;48.780;9.146;2023-04-25T00:40:26;1.43;;;1.00;;
7511;SDS011;9999;48.780;9.146;2023-04-25T00:42:53;0.60;;;0.60;;
7511;SDS011;9999;48.780;9.146;2023-04-25T00:45:21;1.20;;;1.10;;
7511;SDS011;9999;48.780;9.146;2023-04-25T00:47:53;1.20;;;1.13;;
7511;SDS011;9999;48.780;9.146;2023-04-25T00:50:20;1.13;;;0.90;;
7511;SDS011;9999;48.780;9.146;2023-04-25T00:52:47;1.20;;;1.10;;
7511;SDS011;9999;48.780;9.146;2023-04-25T00:55:14;1.00;;;0.90;;
7511;SDS011;9999;48.780;9.146;2023-04-25T00:57:42;1.63;;;1.33;;
7511;SDS011;9999;48.780;9.146;2023-04-25T01:00:09;0.90;;;0.90;;
7511;SDS011;9999;48.780;9.146;2023-04-25T01:02:39;2.03;;;1.30;;
7511;SDS011;9999;48.780;9.146;2023-04-25T01:05:07;1.17;;;1.07;;
7511;SDS011;9999;48.780;9.146;2023-04-25T01:07:34;1.20;;;1.10;;
7511;SDS011;9999;48.780;9.146;2023-04-25T01:10:01;1.40;;;1.30;;
7511;SDS011;9999;48.780;9.146;2023-04-25T01:12:29;2.60;;;1.27;;
7511;SDS011;9999;48.780;9.146;2023-04-25T01:14:56;0.97;;;0.97;;
7511;SDS011;9999;48.780;9.146;2023-04-25T01:17:23;1.50;;;1.30;;
7511;SDS011;9999;48.780;9.146;2023-04-25T01:19:51;1.30;;;1.20;;
7511;SDS011;9999;48.780;9.146;2023-04-25T01:22:20;1.00;;;0.93;;
7511;SDS011;9999;48.780;9.146;2023-04-25T01:24:47;1.07;;;1.07;;
7511;SDS011;9999;48.780;9.146;2023-04-25T01:27:14;1.17;;;1.07;;
7511;SDS011;9999;48.780;9.146;2023-04-25T01:29:41;2.87;;;1.40;;
7511;SDS011;9999;48.780;9.146;2023-04-25T01:32:08;1.63;;;1.50;;
7511;SDS011;9999;48.780;9.146;2023-04-25T01:34:36;5.90;;;1.77;;
7511;SDS011;9999;48.780;9.146;2023-04-25T01:37:03;1.63;;;1.53;;
7511;SDS011;9999;48.780;9.146;2023-04-25T01:39:31;4.63;;;1.57;;
7511;SDS011;9999;48.780;9.146;2023-04-25T01:41:59;1.07;;;1.00;;
7511;SDS011;9999;48.780;9.146;2023-04-25T01:44:26;1.27;;;1.10;;
7511;SDS011;9999;48.780;9.146;2023-04-25T01:46:53;0.90;;;0.90;;
7511;SDS011;9999;48.780;9.146;2023-04-25T01:49:20;1.50;;;1.30;;
7511;SDS011;9999;48.780;9.146;2023-04-25T01:51:48;1.90;;;1.43;;
7511;SDS011;9999;48.780;9.146;2023-04-25T01:54:15;2.87;;;1.23;;
7511;SDS011;9999;48.780;9.146;2023-04-25T01:56:43;1.30;;;1.20;;
7511;SDS011;9999;48.780;9.146;2023-04-25T01:59:10;1.00;;;1.00;;
7511;SDS011;9999;48.780;9.146;2023-04-25T02:02:04;2.63;;;1.40;;
7511;SDS011;9999;48.780;9.146;2023-04-25T02:04:32;1.73;;;0.83;;
7511;SDS011;9999;48.780;9.146;2023-04-25T02:07:00;1.77;;;1.67;;
7511;SDS011;9999;48.780;9.146;2023-04-25T02:09:36;2.27;;;0.87;;
7511;SDS011;9999;48.780;9.146;2023-04-25T02:12:07;1.00;;;1.00;;
7511;SDS011;9999;48.780;9.146;2023-04-25T02:15:04;0.90;;;0.90;;
7511;SDS011;9999;48.780;9.146;2023-04-25T02:17:39;2.77;;;1.57;;
7511;SDS011;9999;48.780;9.146;2023-04-25T02:20:06;2.53;;;1.13;;
7511;SDS011;9999;48.780;9.146;2023-04-25T02:22:33;1.10;;;1.10;;
7511;SDS011;9999;48.780;9.146;2023-04-25T02:25:01;2.70;;;1.50;;
7511;SDS011;9999;48.780;9.146;2023-04-25T02:27:31;1.67;;;1.20;;
7511;SDS011;9999;48.780;9.146;2023-04-25T02:29:57;1.67;;;1.47;;
7511;SDS011;9999;48.780;9.146;2023-04-25T02:32:24;1.53;;;1.30;;
7511;SDS011;9999;48.780;9.146;2023-04-25T02:34:51;0.80;;;0.80;;
7511;SDS011;9999;48.780;9.146;2023-04-25T02:37:18;1.23;;;1.13;;
7511;SDS011;9999;48.780;9.146;2023-04-25T02:39:45;2.00;;;1.70;;
7511;SDS011;9999;48.780;9.146;2023-04-25T02:42:13;1.27;;;1.23;;
7511;SDS011;9999;48.780;9.146;2023-04-25T02:44:41;2.33;;;1.37;;
7511;SDS011;9999;48.780;9.146;2023-04-25T02:47:08;1.57;;;1.47;;
7511;SDS011;9999;48.780;9.146;2023-04-25T02:49:35;1.20;;;1.20;;
7511;SDS011;9999;48.780;9.146;2023-04-25T02:52:01;1.57;;;1.47;;
7511;SDS011;9999;48.780;9.146;2023-04-25T02:54:28;1.53;;;1.43;;
7511;SDS011;9999;48.780;9.146;2023-04-25T02:56:56;2.27;;;1.60;;
7511;SDS011;9999;48.780;9.146;2023-04-25T02:59:27;6.30;;;3.13;;
7511;SDS011;9999;48.780;9.146;2023-04-25T03:01:56;35.50;;;13.97;;
7511;SDS011;9999;48.780;9.146;2023-04-25T03:04:23;36.93;;;16.57;;
7511;SDS011;9999;48.780;9.146;2023-04-25T03:06:50;19.50;;;7.63;;
7511;SDS011;9999;48.780;9.146;2023-04-25T03:09:19;9.10;;;3.93;;
7511;SDS011;9999;48.780;9.146;2023-04-25T03:11:46;1.70;;;1.37;;
7511;SDS011;9999;48.780;9.146;2023-04-25T03:14:13;1.43;;;1.33;;
7511;SDS011;9999;48.780;9.146;2023-04-25T03:16:43;2.40;;;1.43;;
7511;SDS011;9999;48.780;9.146;2023-04-25T03:19:11;2.60;;;1.60;;
7511;SDS011;9999;48.780;9.146;2023-04-25T03:21:41;1.57;;;1.37;;
7511;SDS011;9999;48.780;9.146;2023-04-25T03:24:08;3.27;;;1.40;;
7511;SDS011;9999;48.780;9.146;2023-04-25T03:26:36;1.33;;;1.20;;
7511;SDS011;9999;48.780;9.146;2023-04-25T03:29:02;1.37;;;1.30;;
7511;SDS011;9999;48.780;9.146;2023-04-25T03:31:29;2.30;;;1.40;;
7511;SDS011;9999;48.780;9.146;2023-04-25T03:33:57;1.40;;;1.30;;
7511;SDS011;9999;48.780;9.146;2023-04-25T03:36:25;0.87;;;0.87;;
7511;SDS011;9999;48.780;9.146;2023-04-25T03:38:52;1.73;;;1.63;;
7511;SDS011;9999;48.780;9.146;2023-04-25T03:41:20;1.73;;;0.83;;
7511;SDS011;9999;48.780;9.146;2023-04-25T03:43:52;1.47;;;1.37;;
7511;SDS011;9999;48.780;9.146;2023-04-25T03:46:18;1.33;;;1.23;;
7511;SDS011;9999;48.780;9.146;2023-04-25T03:48:46;1.77;;;1.57;;
7511;SDS011;9999;48.780;9.146;2023-04-25T03:51:20;1.03;;;0.90;;
7511;SDS011;9999;48.780;9.146;2023-04-25T03:53:48;1.37;;;1.30;;
7511;SDS011;9999;48.780;9.146;2023-04-25T03:56:18;1.50;;;1.40;;
7511;SDS011;9999;48.780;9.146;2023-04-25T03:58:47;1.70;;;1.30;;
7511;SDS011;9999;48.780;9.146;2023-04-25T04:01:16;1.70;;;1.60;;
7511;SDS011;9999;48.780;9.146;2023-04-25T04:03:43;1.73;;;1.50;;
7511;SDS011;9999;48.780;9.146;2023-04-25T04:06:10;1.50;;;1.40;;
7511;SDS011;9999;48.780;9.146;2023-04-25T04:08:41;3.70;;;2.07;;
7511;SDS011;9999;48.780;9.146;2023-04-25T04:11:10;2.20;;;1.63;;
7511;SDS011;9999;48.780;9.146;2023-04-25T04:13:37;1.73;;;1.03;;
7511;SDS011;9999;48.780;9.146;2023-04-25T04:16:05;2.77;;;1.60;;
7511;SDS011;9999;48.780;9.146;2023-04-25T04:18:32;2.87;;;2.00;;
7511;SDS011;9999;48.780;9.146;2023-04-25T04:21:00;2.07;;;1.90;;
7511;SDS011;9999;48.780;9.146;2023-04-25T04:23:29;1.33;;;1.23;;
7511;SDS011;9999;48.780;9.146;2023-04-25T04:25:57;2.47;;;1.30;;
7511;SDS011;9999;48.780;9.146;2023-04-25T04:28:40;1.67;;;1.57;;
7511;SDS011;9999;48.780;9.146;2023-04-25T04:31:42;2.03;;;1.30;;
7511;SDS011;9999;48.780;9.146;2023-04-25T04:34:09;2.67;;;1.70;;
7511;SDS011;9999;48.780;9.146;2023-04-25T04:36:37;2.50;;;1.60;;
7511;SDS011;9999;48.780;9.146;2023-04-25T04:39:05;1.63;;;1.53;;
7511;SDS011;9999;48.780;9.146;2023-04-25T04:41:37;4.17;;;1.63;;
7511;SDS011;9999;48.780;9.146;2023-04-25T04:44:26;2.10;;;1.90;;
7511;SDS011;9999;48.780;9.146;2023-04-25T04:47:22;4.97;;;1.60;;
7511;SDS011;9999;48.780;9.146;2023-04-25T04:50:10;2.70;;;2.00;;
7511;SDS011;9999;48.780;9.146;2023-04-25T04:53:00;2.33;;;2.00;;
7511;SDS011;9999;48.780;9.146;2023-04-25T04:55:54;7.67;;;2.33;;
7511;SDS011;9999;48.780;9.146;2023-04-25T04:58:31;3.97;;;1.63;;
7511;SDS011;9999;48.780;9.146;2023-04-25T05:01:09;3.10;;;1.60;;
7511;SDS011;9999;48.780;9.146;2023-04-25T05:03:55;1.80;;;1.70;;
7511;SDS011;9999;48.780;9.146;2023-04-25T05:06:45;3.07;;;1.60;;
7511;SDS011;9999;48.780;9.146;2023-04-25T05:09:41;2.10;;;1.90;;
7511;SDS011;9999;48.780;9.146;2023-04-25T05:12:27;4.03;;;1.70;;
7511;SDS011;9999;48.780;9.146;2023-04-25T05:15:26;1.87;;;1.60;;
7511;SDS011;9999;48.780;9.146;2023-04-25T05:18:18;2.37;;;2.07;;
7511;SDS011;9999;48.780;9.146;2023-04-25T05:20:59;2.27;;;1.93;;
7511;SDS011;9999;48.780;9.146;2023-04-25T05:23:46;1.93;;;1.50;;
7511;SDS011;9999;48.780;9.146;2023-04-25T05:26:31;1.67;;;1.57;;
7511;SDS011;9999;48.780;9.146;2023-04-25T05:29:12;2.20;;;1.77;;
7511;SDS011;9999;48.780;9.146;2023-04-25T05:31:58;3.37;;;1.60;;
7511;SDS011;9999;48.780;9.146;2023-04-25T05:34:27;1.93;;;1.57;;
7511;SDS011;9999;48.780;9.146;2023-04-25T05:36:57;2.20;;;2.00;;
7511;SDS011;9999;48.780;9.146;2023-04-25T05:39:24;2.30;;;2.10;;
7511;SDS011;9999;48.780;9.146;2023-04-25T05:42:05;2.83;;;2.00;;
7511;SDS011;9999;48.780;9.146;2023-04-25T05:45:11;2.83;;;1.50;;
7511;SDS011;9999;48.780;9.146;2023-04-25T05:47:58;3.43;;;1.77;;
7511;SDS011;9999;48.780;9.146;2023-04-25T05:50:43;2.60;;;1.77;;
7511;SDS011;9999;48.780;9.146;2023-04-25T05:53:36;3.10;;;1.80;;
7511;SDS011;9999;48.780;9.146;2023-04-25T05:56:05;1.63;;;1.37;;
7511;SDS011;9999;48.780;9.146;2023-04-25T05:58:31;1.57;;;1.40;;
7511;SDS011;9999;48.780;9.146;2023-04-25T06:01:03;4.60;;;2.10;;
7511;SDS011;9999;48.780;9.146;2023-04-25T06:03:30;3.40;;;1.50;;
7511;SDS011;9999;48.780;9.146;2023-04-25T06:05:58;1.23;;;1.13;;
7511;SDS011;9999;48.780;9.146;2023-04-25T06:08:25;1.47;;;1.37;;
7511;SDS011;9999;48.780;9.146;2023-04-25T06:10:52;4.00;;;1.87;;
7511;SDS011;9999;48.780;9.146;2023-04-25T06:13:19;1.43;;;1.33;;
7511;SDS011;9999;48.780;9.146;2023-04-25T06:15:45;2.93;;;1.60;;
7511;SDS011;9999;48.780;9.146;2023-04-25T06:18:12;1.90;;;1.60;;
7511;SDS011;9999;48.780;9.146;2023-04-25T06:20:39;1.73;;;1.50;;
7511;SDS011;9999;48.780;9.146;2023-04-25T06:23:07;1.90;;;1.80;;
7511;SDS011;9999;48.780;9.146;2023-04-25T06:26:00;2.17;;;1.97;;
7511;SDS011;9999;48.780;9.146;2023-04-25T06:28:29;2.07;;;1.77;;
7511;SDS011;9999;48.780;9.146;2023-04-25T06:30:56;2.07;;;1.53;;
7511;SDS011;9999;48.780;9.146;2023-04-25T06:33:23;1.70;;;1.60;;
7511;SDS011;9999;48.780;9.146;2023-04-25T06:35:50;1.37;;;1.33;;
7511;SDS011;9999;48.780;9.146;2023-04-25T06:38:23;1.50;;;1.17;;
7511;SDS011;9999;48.780;9.146;2023-04-25T06:40:51;1.83;;;1.60;;
7511;SDS011;9999;48.780;9.146;2023-04-25T06:43:18;1.40;;;1.30;;
7511;SDS011;9999;48.780;9.146;2023-04-25T06:46:14;2.73;;;1.97;;
7511;SDS011;9999;48.780;9.146;2023-04-25T06:48:44;3.50;;;2.10;;
7511;SDS011;9999;48.780;9.146;2023-04-25T06:51:11;2.23;;;1.97;;
7511;SDS011;9999;48.780;9.146;2023-04-25T06:53:40;2.10;;;1.53;;
7511;SDS011;9999;48.780;9.146;2023-04-25T06:56:11;2.03;;;1.73;;
7511;SDS011;9999;48.780;9.146;2023-04-25T06:58:49;1.77;;;1.63;;
7511;SDS011;9999;48.780;9.146;2023-04-25T07:01:31;1.70;;;1.60;;
7511;SDS011;9999;48.780;9.146;2023-04-25T07:04:00;2.20;;;1.90;;
7511;SDS011;9999;48.780;9.146;2023-04-25T07:06:29;1.97;;;1.77;;
7511;SDS011;9999;48.780;9.146;2023-04-25T07:08:57;5.80;;;1.90;;
7511;SDS011;9999;48.780;9.146;2023-04-25T07:11:24;2.07;;;1.87;;
7511;SDS011;9999;48.780;9.146;2023-04-25T07:13:51;3.17;;;2.20;;
7511;SDS011;9999;48.780;9.146;2023-04-25T07:16:18;3.10;;;1.63;;
7511;SDS011;9999;48.780;9.146;2023-04-25T07:18:45;1.80;;;1.60;;
7511;SDS011;9999;48.780;9.146;2023-04-25T07:21:13;3.70;;;1.90;;
7511;SDS011;9999;48.780;9.146;2023-04-25T07:23:41;2.50;;;2.10;;
7511;SDS011;9999;48.780;9.146;2023-04-25T07:26:14;3.00;;;2.40;;
7511;SDS011;9999;48.780;9.146;2023-04-25T07:29:01;2.57;;;1.90;;
7511;SDS011;9999;48.780;9.146;2023-04-25T07:31:28;2.97;;;1.70;;
7511;SDS011;9999;48.780;9.146;2023-04-25T07:33:56;3.67;;;2.73;;
7511;SDS011;9999;48.780;9.146;2023-04-25T07:36:22;3.40;;;2.30;;
7511;SDS011;9999;48.780;9.146;2023-04-25T07:38:49;2.37;;;2.17;;
7511;SDS011;9999;48.780;9.146;2023-04-25T07:41:17;6.43;;;2.67;;
7511;SDS011;9999;48.780;9.146;2023-04-25T07:43:44;2.97;;;2.27;;
7511;SDS011;9999;48.780;9.146;2023-04-25T07:46:11;2.10;;;1.90;;
7511;SDS011;9999;48.780;9.146;2023-04-25T07:48:38;2.57;;;2.00;;
7511;SDS011;9999;48.780;9.146;2023-04-25T07:51:04;2.30;;;2.10;;
7511;SDS011;9999;48.780;9.146;2023-04-25T07:53:34;2.13;;;1.93;;
7511;SDS011;9999;48.780;9.146;2023-04-25T07:56:08;2.47;;;2.10;;
7511;SDS011;9999;48.780;9.146;2023-04-25T07:58:39;2.23;;;2.03;;
7511;SDS011;9999;48.780;9.146;2023-04-25T08:01:09;3.10;;;2.23;;
7511;SDS011;9999;48.780;9.146;2023-04-25T08:03:52;2.53;;;2.20;;
7511;SDS011;9999;48.780;9.146;2023-04-25T08:06:24;2.10;;;1.97;;
7511;SDS011;9999;48.780;9.146;2023-04-25T08:09:02;3.60;;;2.63;;
7511;SDS011;9999;48.780;9.146;2023-04-25T08:11:35;3.93;;;2.63;;
7511;SDS011;9999;48.780;9.146;2023-04-25T08:14:04;2.90;;;1.97;;
7511;SDS011;9999;48.780;9.146;2023-04-25T08:16:33;4.63;;;2.47;;
7511;SDS011;9999;48.780;9.146;2023-04-25T08:19:00;2.83;;;2.17;;
7511;SDS011;9999;48.780;9.146;2023-04-25T08:21:27;3.53;;;1.80;;
7511;SDS011;9999;48.780;9.146;2023-04-25T08:23:57;2.70;;;2.10;;
7511;SDS011;9999;48.780;9.146;2023-04-25T08:26:28;4.33;;;2.63;;
7511;SDS011;9999;48.780;9.146;2023-04-25T08:28:56;3.53;;;2.37;;
7511;SDS011;9999;48.780;9.146;2023-04-25T08:31:24;2.30;;;2.10;;
7511;SDS011;9999;48.780;9.146;2023-04-25T08:33:56;2.40;;;2.20;;
7511;SDS011;9999;48.780;9.146;2023-04-25T08:36:31;2.67;;;1.90;;
7511;SDS011;9999;48.780;9.146;2023-04-25T08:38:59;3.83;;;2.80;;
7511;SDS011;9999;48.780;9.146;2023-04-25T08:41:26;4.13;;;2.57;;
7511;SDS011;9999;48.780;9.146;2023-04-25T08:43:59;4.83;;;2.40;;
7511;SDS011;9999;48.780;9.146;2023-04-25T08:46:28;2.80;;;2.10;;
7511;SDS011;9999;48.780;9.146;2023-04-25T08:49:09;3.70;;;2.50;;
7511;SDS011;9999;48.780;9.146;2023-04-25T08:51:36;2.53;;;2.30;;
7511;SDS011;9999;48.780;9.146;2023-04-25T08:54:14;3.80;;;2.33;;
7511;SDS011;9999;48.780;9.146;2023-04-25T08:56:43;2.83;;;2.00;;
7511;SDS011;9999;48.780;9.146;2023-04-25T08:59:12;3.70;;;2.60;;
7511;SDS011;9999;48.780;9.146;2023-04-25T09:01:45;3.13;;;2.60;;
7511;SDS011;9999;48.780;9.146;2023-04-25T09:04:12;3.63;;;2.43;;
7511;SDS011;9999;48.780;9.146;2023-04-25T09:06:39;3.23;;;2.53;;
7511;SDS011;9999;48.780;9.146;2023-04-25T09:09:07;3.43;;;2.33;;
7511;SDS011;9999;48.780;9.146;2023-04-25T09:11:36;3.87;;;2.47;;
7511;SDS011;9999;48.780;9.146;2023-04-25T09:14:10;2.53;;;2.00;;
7511;SDS011;9999;48.780;9.146;2023-04-25T09:17:04;4.60;;;2.70;;
7511;SDS011;9999;48.780;9.146;2023-04-25T09:20:08;4.97;;;2.40;;
7511;SDS011;9999;48.780;9.146;2023-04-25T09:22:36;3.50;;;2.50;;
7511;SDS011;9999;48.780;9.146;2023-04-25T09:25:07;5.53;;;2.60;;
7511;SDS011;9999;48.780;9.146;2023-04-25T09:27:35;2.50;;;2.13;;
7511;SDS011;9999;48.780;9.146;2023-04-25T09:30:15;3.80;;;2.17;;
7511;SDS011;9999;48.780;9.146;2023-04-25T09:33:10;2.97;;;2.67;;
7511;SDS011;9999;48.780;9.146;2023-04-25T09:35:42;7.17;;;2.77;;
7511;SDS011;9999;48.780;9.146;2023-04-25T09:38:20;4.83;;;2.97;;
7511;SDS011;9999;48.780;9.146;2023-04-25T09:40:58;3.20;;;2.60;;
7511;SDS011;9999;48.780;9.146;2023-04-25T09:43:39;3.47;;;2.43;;
7511;SDS011;9999;48.780;9.146;2023-04-25T09:46:08;3.40;;;2.13;;
7511;SDS011;9999;48.780;9.146;2023-04-25T09:48:40;3.37;;;2.43;;
7511;SDS011;9999;48.780;9.146;2023-04-25T09:51:14;2.50;;;2.10;;
7511;SDS011;9999;48.780;9.146;2023-04-25T09:53:43;2.40;;;2.20;;
7511;SDS011;9999;48.780;9.146;2023-04-25T09:56:30;2.80;;;2.60;;
7511;SDS011;9999;48.780;9.146;2023-04-25T09:59:04;4.70;;;2.77;;
7511;SDS011;9999;48.780;9.146;2023-04-25T10:01:35;3.07;;;2.53;;
7511;SDS011;9999;48.780;9.146;2023-04-25T10:04:16;2.40;;;2.00;;
7511;SDS011;9999;48.780;9.146;2023-04-25T10:06:57;3.23;;;1.70;;
7511;SDS011;9999;48.780;9.146;2023-04-25T10:09:25;1.60;;;1.50;;
7511;SDS011;9999;48.780;9.146;2023-04-25T10:11:56;1.63;;;1.50;;
7511;SDS011;9999;48.780;9.146;2023-04-25T10:14:24;2.73;;;1.40;;
7511;SDS011;9999;48.780;9.146;2023-04-25T10:17:04;3.17;;;1.50;;
7511;SDS011;9999;48.780;9.146;2023-04-25T10:19:32;1.77;;;1.30;;
7511;SDS011;9999;48.780;9.146;2023-04-25T10:22:04;1.20;;;1.10;;
7511;SDS011;9999;48.780;9.146;2023-04-25T10:24:34;1.33;;;1.10;;
7511;SDS011;9999;48.780;9.146;2023-04-25T10:27:01;1.00;;;1.00;;
7511;SDS011;9999;48.780;9.146;2023-04-25T10:29:29;5.43;;;1.30;;
7511;SDS011;9999;48.780;9.146;2023-04-25T10:31:55;0.90;;;0.90;;
7511;SDS011;9999;48.780;9.146;2023-04-25T10:34:24;0.43;;;0.43;;
7511;SDS011;9999;48.780;9.146;2023-04-25T10:37:04;1.17;;;0.87;;
7511;SDS011;9999;48.780;9.146;2023-04-25T10:39:32;1.63;;;0.80;;
7511;SDS011;9999;48.780;9.146;2023-04-25T10:41:59;0.70;;;0.63;;
7511;SDS011;9999;48.780;9.146;2023-04-25T10:44:29;0.80;;;0.80;;
7511;SDS011;9999;48.780;9.146;2023-04-25T10:46:56;0.87;;;0.87;;
7511;SDS011;9999;48.780;9.146;2023-04-25T10:49:31;1.77;;;0.90;;
7511;SDS011;9999;48.780;9.146;2023-04-25T10:52:16;0.70;;;0.70;;
7511;SDS011;9999;48.780;9.146;2023-04-25T10:54:46;2.70;;;1.60;;
7511;SDS011;9999;48.780;9.146;2023-04-25T10:57:29;2.13;;;1.60;;
7511;SDS011;9999;48.780;9.146;2023-04-25T11:00:00;1.57;;;1.47;;
7511;SDS011;9999;48.780;9.146;2023-04-25T11:02:36;1.70;;;1.60;;
7511;SDS011;9999;48.780;9.146;2023-04-25T11:05:04;2.60;;;2.00;;
7511;SDS011;9999;48.780;9.146;2023-04-25T11:07:37;2.50;;;1.90;;
7511;SDS011;9999;48.780;9.146;2023-04-25T11:10:05;3.10;;;1.60;;
7511;SDS011;9999;48.780;9.146;2023-04-25T11:12:33;2.30;;;1.90;;
7511;SDS011;9999;48.780;9.146;2023-04-25T11:15:00;2.40;;;1.60;;
7511;SDS011;9999;48.780;9.146;2023-04-25T11:17:28;2.80;;;1.77;;
7511;SDS011;9999;48.780;9.146;2023-04-25T11:19:55;4.90;;;2.13;;
7511;SDS011;9999;48.780;9.146;2023-04-25T11:22:22;1.57;;;1.47;;
7511;SDS011;9999;48.780;9.146;2023-04-25T11:24:51;1.67;;;1.27;;
7511;SDS011;9999;48.780;9.146;2023-04-25T11:27:18;2.03;;;1.70;;
7511;SDS011;9999;48.780;9.146;2023-04-25T11:29:44;2.30;;;1.83;;
7511;SDS011;9999;48.780;9.146;2023-04-25T11:32:13;3.33;;;1.70;;
7511;SDS011;9999;48.780;9.146;2023-04-25T11:34:44;1.53;;;1.43;;
7511;SDS011;9999;48.780;9.146;2023-04-25T11:37:11;2.27;;;1.50;;
7511;SDS011;9999;48.780;9.146;2023-04-25T11:39:39;3.40;;;1.40;;
7511;SDS011;9999;48.780;9.146;2023-04-25T11:42:12;1.30;;;1.17;;
7511;SDS011;9999;48.780;9.146;2023-04-25T11:44:39;3.90;;;1.57;;
7511;SDS011;9999;48.780;9.146;2023-04-25T11:47:06;1.33;;;1.23;;
7511;SDS011;9999;48.780;9.146;2023-04-25T11:49:33;2.20;;;1.93;;
7511;SDS011;9999;48.780;9.146;2023-04-25T11:52:00;1.70;;;1.60;;
7511;SDS011;9999;48.780;9.146;2023-04-25T11:54:27;3.47;;;2.20;;
7511;SDS011;9999;48.780;9.146;2023-04-25T11:56:54;2.57;;;1.87;;
7511;SDS011;9999;48.780;9.146;2023-04-25T11:59:24;2.60;;;2.00;;
7511;SDS011;9999;48.780;9.146;2023-04-25T12:01:51;3.17;;;2.60;;
7511;SDS011;9999;48.780;9.146;2023-04-25T12:04:20;2.70;;;2.00;;
7511;SDS011;9999;48.780;9.146;2023-04-25T12:06:48;2.27;;;2.03;;
7511;SDS011;9999;48.780;9.146;2023-04-25T12:09:16;2.43;;;1.90;;
7511;SDS011;9999;48.780;9.146;2023-04-25T12:11:45;2.17;;;1.90;;
7511;SDS011;9999;48.780;9.146;2023-04-25T12:14:19;2.93;;;1.97;;
7511;SDS011;9999;48.780;9.146;2023-04-25T12:16:49;3.70;;;2.53;;
7511;SDS011;9999;48.780;9.146;2023-04-25T12:19:17;2.37;;;2.17;;
7511;SDS011;9999;48.780;9.146;2023-04-25T12:21:45;2.67;;;2.30;;
7511;SDS011;9999;48.780;9.146;2023-04-25T12:24:13;2.57;;;2.10;;
7511;SDS011;9999;48.780;9.146;2023-04-25T12:26:47;6.10;;;1.97;;
7511;SDS011;9999;48.780;9.146;2023-04-25T12:29:15;3.23;;;2.40;;
7511;SDS011;9999;48.780;9.146;2023-04-25T12:31:43;3.13;;;2.67;;
7511;SDS011;9999;48.780;9.146;2023-04-25T12:34:12;4.63;;;2.73;;
7511;SDS011;9999;48.780;9.146;2023-04-25T12:36:38;3.27;;;2.97;;
7511;SDS011;9999;48.780;9.146;2023-04-25T12:39:05;5.47;;;3.27;;
7511;SDS011;9999;48.780;9.146;2023-04-25T12:41:33;5.87;;;3.40;;
7511;SDS011;9999;48.780;9.146;2023-04-25T12:44:00;5.07;;;2.53;;
7511;SDS011;9999;48.780;9.146;2023-04-25T12:46:27;4.73;;;3.07;;
7511;SDS011;9999;48.780;9.146;2023-04-25T12:48:53;4.00;;;2.53;;
7511;SDS011;9999;48.780;9.146;2023-04-25T12:51:23;5.67;;;2.67;;
7511;SDS011;9999;48.780;9.146;2023-04-25T12:53:51;5.33;;;2.93;;
7511;SDS011;9999;48.780;9.146;2023-04-25T12:56:18;4.97;;;3.00;;
7511;SDS011;9999;48.780;9.146;2023-04-25T12:58:45;5.27;;;3.60;;
7511;SDS011;9999;48.780;9.146;2023-04-25T13:01:13;4.10;;;2.57;;
7511;SDS011;9999;48.780;9.146;2023-04-25T13:03:40;6.57;;;3.13;;
7511;SDS011;9999;48.780;9.146;2023-04-25T13:06:06;3.07;;;2.40;;
7511;SDS011;9999;48.780;9.146;2023-04-25T13:08:35;4.80;;;2.93;;
7511;SDS011;9999;48.780;9.146;2023-04-25T13:11:03;4.13;;;3.43;;
7511;SDS011;9999;48.780;9.146;2023-04-25T13:13:30;4.73;;;3.10;;
7511;SDS011;9999;48.780;9.146;2023-04-25T13:15:59;5.47;;;3.50;;
7511;SDS011;9999;48.780;9.146;2023-04-25T13:18:27;6.87;;;3.50;;
7511;SDS011;9999;48.780;9.146;2023-04-25T13:20:53;5.53;;;3.07;;
7511;SDS011;9999;48.780;9.146;2023-04-25T13:23:21;7.20;;;3.00;;
7511;SDS011;9999;48.780;9.146;2023-04-25T13:25:49;5.23;;;3.63;;
7511;SDS011;9999;48.780;9.146;2023-04-25T13:28:16;10.87;;;5.50;;
7511;SDS011;9999;48.780;9.146;2023-04-25T13:30:43;7.87;;;4.40;;
7511;SDS011;9999;48.780;9.146;2023-04-25T13:33:10;5.57;;;3.90;;
7511;SDS011;9999;48.780;9.146;2023-04-25T13:35:37;10.10;;;5.07;;
7511;SDS011;9999;48.780;9.146;2023-04-25T13:38:04;5.88;;;4.20;;
7511;SDS011;9999;48.780;9.146;2023-04-25T13:40:31;4.73;;;3.77;;
7511;SDS011;9999;48.780;9.146;2023-04-25T13:43:00;7.72;;;4.75;;
7511;SDS011;9999;48.780;9.146;2023-04-25T13:45:27;7.57;;;4.07;;
7511;SDS011;9999;48.780;9.146;2023-04-25T13:47:54;6.88;;;4.32;;
7511;SDS011;9999;48.780;9.146;2023-04-25T13:50:21;9.95;;;5.18;;
7511;SDS011;9999;48.780;9.146;2023-04-25T13:52:47;8.95;;;4.75;;
7511;SDS011;9999;48.780;9.146;2023-04-25T13:55:14;8.87;;;5.00;;
7511;SDS011;9999;48.780;9.146;2023-04-25T13:57:41;7.60;;;4.03;;
7511;SDS011;9999;48.780;9.146;2023-04-25T14:00:10;6.17;;;4.13;;
7511;SDS011;9999;48.780;9.146;2023-04-25T14:02:38;6.43;;;4.18;;
7511;SDS011;9999;48.780;9.146;2023-04-25T14:05:05;9.05;;;4.38;;
7511;SDS011;9999;48.780;9.146;2023-04-25T14:07:33;5.63;;;4.35;;
7511;SDS011;9999;48.780;9.146;2023-04-25T14:10:00;6.05;;;4.15;;
7511;SDS011;9999;48.780;9.146;2023-04-25T14:12:27;6.38;;;4.10;;
7511;SDS011;9999;48.780;9.146;2023-04-25T14:14:54;8.40;;;4.17;;
7511;SDS011;9999;48.780;9.146;2023-04-25T14:17:22;5.25;;;3.92;;
7511;SDS011;9999;48.780;9.146;2023-04-25T14:19:49;5.40;;;3.63;;
7511;SDS011;9999;48.780;9.146;2023-04-25T14:22:16;4.30;;;3.35;;
7511;SDS011;9999;48.780;9.146;2023-04-25T14:24:42;4.90;;;2.97;;
7511;SDS011;9999;48.780;9.146;2023-04-25T14:27:09;3.80;;;3.13;;
7511;SDS011;9999;48.780;9.146;2023-04-25T14:29:36;3.47;;;2.70;;
7511;SDS011;9999;48.780;9.146;2023-04-25T14:32:03;3.38;;;2.72;;
7511;SDS011;9999;48.780;9.146;2023-04-25T14:34:32;5.88;;;3.10;;
7511;SDS011;9999;48.780;9.146;2023-04-25T14:36:59;3.38;;;2.55;;
7511;SDS011;9999;48.780;9.146;2023-04-25T14:39:26;4.10;;;2.88;;
7511;SDS011;9999;48.780;9.146;2023-04-25T14:41:53;3.83;;;2.85;;
7511;SDS011;9999;48.780;9.146;2023-04-25T14:44:21;2.72;;;2.42;;
7511;SDS011;9999;48.780;9.146;2023-04-25T14:46:47;4.65;;;2.47;;
7511;SDS011;9999;48.780;9.146;2023-04-25T14:49:16;3.42;;;2.88;;
7511;SDS011;9999;48.780;9.146;2023-04-25T14:51:45;2.80;;;2.40;;
7511;SDS011;9999;48.780;9.146;2023-04-25T14:54:11;4.50;;;3.10;;
7511;SDS011;9999;48.780;9.146;2023-04-25T14:56:38;3.53;;;3.00;;
7511;SDS011;9999;48.780;9.146;2023-04-25T14:59:05;3.13;;;2.80;;
7511;SDS011;9999;48.780;9.146;2023-04-25T15:01:32;7.78;;;2.78;;
7511;SDS011;9999;48.780;9.146;2023-04-25T15:03:58;3.03;;;2.42;;
7511;SDS011;9999;48.780;9.146;2023-04-25T15:06:25;4.20;;;3.15;;
7511;SDS011;9999;48.780;9.146;2023-04-25T15:08:55;4.85;;;2.90;;
7511;SDS011;9999;48.780;9.146;2023-04-25T15:11:22;10.18;;;3.40;;
7511;SDS011;9999;48.780;9.146;2023-04-25T15:13:49;2.83;;;2.45;;
7511;SDS011;9999;48.780;9.146;2023-04-25T15:16:15;6.32;;;2.80;;
7511;SDS011;9999;48.780;9.146;2023-04-25T15:18:42;3.85;;;2.83;;
7511;SDS011;9999;48.780;9.146;2023-04-25T15:21:09;5.32;;;2.95;;
7511;SDS011;9999;48.780;9.146;2023-04-25T15:23:36;3.55;;;2.72;;
7511;SDS011;9999;48.780;9.146;2023-04-25T15:26:04;4.47;;;2.92;;
7511;SDS011;9999;48.780;9.146;2023-04-25T15:28:31;5.13;;;3.47;;
7511;SDS011;9999;48.780;9.146;2023-04-25T15:30:58;3.30;;;2.70;;
7511;SDS011;9999;48.780;9.146;2023-04-25T15:33:25;5.47;;;2.47;;
7511;SDS011;9999;48.780;9.146;2023-04-25T15:35:52;7.30;;;3.38;;